createdAt,value
2022-12-15T00:00:47.495Z,5.60
2022-12-15T00:03:16.244Z,5.70
2022-12-15T00:05:43.537Z,6.15
2022-12-15T00:08:19.842Z,6.43
2022-12-15T00:10:48.595Z,5.70
2022-12-15T00:13:25.927Z,5.43
2022-12-15T00:15:59.793Z,6.07
2022-12-15T00:18:33.157Z,5.90
2022-12-15T00:21:08.164Z,5.70
2022-12-15T00:23:35.508Z,5.05
2022-12-15T00:26:02.427Z,5.88
2022-12-15T00:28:30.887Z,5.60
2022-12-15T00:31:02.714Z,5.72
2022-12-15T00:33:30.175Z,5.57
2022-12-15T00:36:06.460Z,5.10
2022-12-15T00:38:39.199Z,5.45
2022-12-15T00:41:18.315Z,4.38
2022-12-15T00:44:05.882Z,4.93
2022-12-15T00:46:42.182Z,4.47
2022-12-15T00:49:10.535Z,3.83
2022-12-15T00:51:46.177Z,4.43
2022-12-15T00:54:37.424Z,4.78
2022-12-15T00:57:07.066Z,3.60
2022-12-15T00:59:37.879Z,3.85
2022-12-15T01:02:09.230Z,3.60
2022-12-15T01:04:44.250Z,2.90
2022-12-15T01:07:16.302Z,3.17
2022-12-15T01:09:47.441Z,2.95
2022-12-15T01:14:46.485Z,1.90
2022-12-15T01:17:21.303Z,2.90
2022-12-15T01:19:48.308Z,2.13
2022-12-15T01:22:20.541Z,2.25
2022-12-15T01:24:59.877Z,2.60
2022-12-15T01:27:39.290Z,2.55
2022-12-15T01:30:16.120Z,2.92
2022-12-15T01:32:46.654Z,2.70
2022-12-15T01:35:21.833Z,2.05
2022-12-15T01:37:55.679Z,2.70
2022-12-15T01:40:24.532Z,2.78
2022-12-15T01:43:03.570Z,2.80
2022-12-15T01:46:09.637Z,2.58
2022-12-15T01:48:54.993Z,2.70
2022-12-15T01:51:28.603Z,2.63
2022-12-15T01:54:00.127Z,2.83
2022-12-15T01:56:38.179Z,1.88
2022-12-15T01:59:24.278Z,2.75
2022-12-15T02:01:54.580Z,1.90
2022-12-15T02:04:29.732Z,2.00
2022-12-15T02:07:18.443Z,1.88
2022-12-15T02:09:54.458Z,1.67
2022-12-15T02:12:32.257Z,1.83
2022-12-15T02:15:22.023Z,2.08
2022-12-15T02:18:00.458Z,1.45
2022-12-15T02:20:45.954Z,1.55
2022-12-15T02:23:50.430Z,1.23
2022-12-15T02:26:57.474Z,1.35
2022-12-15T02:29:57.941Z,1.27
2022-12-15T02:32:28.754Z,1.27
2022-12-15T02:35:03.117Z,1.10
2022-12-15T02:37:37.499Z,1.42
2022-12-15T02:40:11.897Z,1.48
2022-12-15T02:42:45.787Z,1.60
2022-12-15T02:45:14.806Z,1.10
2022-12-15T02:48:04.762Z,1.30
2022-12-15T02:50:52.366Z,1.20
2022-12-15T02:53:41.915Z,1.30
2022-12-15T02:56:24.508Z,1.42
2022-12-15T02:59:24.186Z,1.20
2022-12-15T03:02:00.375Z,1.50
2022-12-15T03:04:31.899Z,1.20
2022-12-15T03:07:01.993Z,1.60
2022-12-15T03:09:31.085Z,1.33
2022-12-15T03:12:02.131Z,1.27
2022-12-15T03:14:28.989Z,1.52
2022-12-15T03:16:59.566Z,1.60
2022-12-15T03:19:33.884Z,1.55
2022-12-15T03:22:03.935Z,1.33
2022-12-15T03:24:33.778Z,2.50
2022-12-15T03:27:10.015Z,1.98
2022-12-15T03:29:42.922Z,1.70
2022-12-15T03:35:11.232Z,2.10
2022-12-15T03:37:40.396Z,2.10
2022-12-15T03:40:17.905Z,2.13
2022-12-15T03:43:11.030Z,1.83
2022-12-15T03:46:29.718Z,2.20
2022-12-15T03:49:34.378Z,2.28
2022-12-15T03:52:22.574Z,2.13
2022-12-15T03:55:20.320Z,2.47
2022-12-15T03:57:52.265Z,2.53
2022-12-15T04:00:35.733Z,2.30
2022-12-15T04:06:15.796Z,2.30
2022-12-15T04:09:01.710Z,3.35
2022-12-15T04:11:46.728Z,2.38
2022-12-15T04:14:21.580Z,2.83
2022-12-15T04:16:56.270Z,2.58
2022-12-15T04:19:47.460Z,2.47
2022-12-15T04:22:28.406Z,2.75
2022-12-15T04:25:06.355Z,2.50
2022-12-15T04:28:08.973Z,2.40
2022-12-15T04:30:48.218Z,3.17
2022-12-15T04:33:32.543Z,2.70
2022-12-15T04:36:12.222Z,3.63
2022-12-15T04:38:50.081Z,2.75
2022-12-15T04:44:45.495Z,2.90
2022-12-15T04:47:35.287Z,2.95
2022-12-15T04:50:25.676Z,2.92
2022-12-15T04:56:16.497Z,3.00
2022-12-15T04:59:30.306Z,3.53
2022-12-15T05:02:08.715Z,3.47
2022-12-15T05:08:39.788Z,3.88
2022-12-15T05:11:31.994Z,3.72
2022-12-15T05:14:07.367Z,3.97
2022-12-15T05:16:53.602Z,4.05
2022-12-15T05:19:31.306Z,4.20
2022-12-15T05:22:03.440Z,4.10
2022-12-15T05:24:44.471Z,3.67
2022-12-15T05:27:21.586Z,3.40
2022-12-15T05:30:05.483Z,3.47
2022-12-15T05:33:15.360Z,3.47
2022-12-15T05:35:50.051Z,2.95
2022-12-15T05:38:27.586Z,3.72
2022-12-15T05:40:59.587Z,4.28
2022-12-15T05:43:30.016Z,2.72
2022-12-15T05:46:10.097Z,2.95
2022-12-15T05:48:39.763Z,2.92
2022-12-15T05:51:12.400Z,3.20
2022-12-15T05:53:45.445Z,2.85
2022-12-15T05:56:32.303Z,3.28
2022-12-15T05:59:07.017Z,3.28
2022-12-15T06:01:48.842Z,3.10
2022-12-15T06:04:16.002Z,3.65
2022-12-15T06:06:56.522Z,4.18
2022-12-15T06:09:28.174Z,4.13
2022-12-15T06:12:03.969Z,3.50
2022-12-15T06:14:41.883Z,4.00
2022-12-15T06:17:19.659Z,3.88
2022-12-15T06:19:59.995Z,4.25
2022-12-15T06:22:39.499Z,5.07
2022-12-15T06:25:39.160Z,5.22
2022-12-15T06:28:11.492Z,5.60
2022-12-15T06:30:47.140Z,6.40
2022-12-15T06:33:18.486Z,8.05
2022-12-15T06:35:49.590Z,7.40
2022-12-15T06:38:25.700Z,8.50
2022-12-15T06:41:01.832Z,8.98
2022-12-15T06:43:36.895Z,8.90
2022-12-15T06:46:21.414Z,8.90
2022-12-15T06:49:01.965Z,9.55
2022-12-15T06:51:41.029Z,9.65
2022-12-15T06:54:14.104Z,9.40
2022-12-15T06:56:50.247Z,9.38
2022-12-15T06:59:17.269Z,9.60
2022-12-15T07:01:55.377Z,9.38
2022-12-15T07:04:24.686Z,10.15
2022-12-15T07:06:58.133Z,10.27
2022-12-15T07:09:26.016Z,9.35
2022-12-15T07:12:02.808Z,9.52
2022-12-15T07:14:30.021Z,9.85
2022-12-15T07:17:01.266Z,9.15
2022-12-15T07:35:23.687Z,7.97
2022-12-15T07:37:50.834Z,7.85
2022-12-15T07:40:36.889Z,8.48
2022-12-15T07:46:33.051Z,7.95
2022-12-15T07:49:13.631Z,9.05
2022-12-15T07:51:45.448Z,6.35
2022-12-15T07:54:53.054Z,9.18
2022-12-15T07:57:25.805Z,9.10
2022-12-15T08:00:16.770Z,9.63
2022-12-15T08:02:51.659Z,10.15
2022-12-15T08:05:25.300Z,9.43
2022-12-15T08:08:15.127Z,9.15
2022-12-15T08:10:53.465Z,10.00
2022-12-15T08:14:04.560Z,9.63
2022-12-15T08:16:52.515Z,10.00
2022-12-15T08:19:36.041Z,9.70
2022-12-15T08:23:04.861Z,9.88
2022-12-15T08:28:57.116Z,10.13
2022-12-15T08:32:02.010Z,8.98
2022-12-15T08:35:25.415Z,9.52
2022-12-15T08:38:34.733Z,9.68
2022-12-15T08:41:46.088Z,9.73
2022-12-15T08:44:29.344Z,8.93
2022-12-15T08:47:04.337Z,8.90
2022-12-15T08:49:32.209Z,8.70
2022-12-15T08:51:59.247Z,8.60
2022-12-15T08:54:27.675Z,8.23
2022-12-15T08:57:16.805Z,8.52
2022-12-15T09:00:06.963Z,8.30
2022-12-15T09:02:51.675Z,7.40
2022-12-15T09:05:37.431Z,7.68
2022-12-15T09:08:07.057Z,8.25
2022-12-15T09:10:52.739Z,8.30
2022-12-15T09:13:24.732Z,8.32
2022-12-15T09:16:09.935Z,7.90
2022-12-15T09:19:03.514Z,7.43
2022-12-15T09:24:34.616Z,8.52
2022-12-15T09:27:08.643Z,8.68
2022-12-15T09:30:07.329Z,9.02
2022-12-15T09:33:06.118Z,9.27
2022-12-15T09:35:49.826Z,8.55
2022-12-15T09:44:42.074Z,9.60
2022-12-15T09:47:40.192Z,9.27
2022-12-15T09:50:21.280Z,10.48
2022-12-15T09:53:01.416Z,10.52
2022-12-15T09:55:32.434Z,9.93
2022-12-15T09:58:11.200Z,9.27
2022-12-15T10:00:58.445Z,9.15
2022-12-15T10:03:55.765Z,9.77
2022-12-15T10:06:33.546Z,9.73
2022-12-15T10:09:14.729Z,9.35
2022-12-15T10:12:00.441Z,10.25
2022-12-15T10:14:36.960Z,9.23
2022-12-15T10:17:22.684Z,9.05
2022-12-15T10:20:04.641Z,8.95
2022-12-15T10:22:46.542Z,9.00
2022-12-15T10:25:33.696Z,9.07
2022-12-15T10:28:39.973Z,8.65
2022-12-15T10:31:34.007Z,7.97
2022-12-15T10:34:10.748Z,8.50
2022-12-15T10:36:37.874Z,9.07
2022-12-15T10:39:11.613Z,9.40
2022-12-15T10:41:44.404Z,8.82
2022-12-15T10:44:33.833Z,8.43
2022-12-15T10:47:21.150Z,8.23
2022-12-15T10:53:41.818Z,7.45
2022-12-15T10:59:40.847Z,6.82
2022-12-15T11:05:51.262Z,7.00
2022-12-15T11:08:18.508Z,6.88
2022-12-15T11:11:07.688Z,8.07
2022-12-15T11:14:00.371Z,8.27
2022-12-15T11:16:58.129Z,8.45
2022-12-15T11:19:45.552Z,7.45
2022-12-15T11:22:20.536Z,7.55
2022-12-15T11:24:59.486Z,7.15
2022-12-15T11:27:56.401Z,7.03
2022-12-15T11:30:35.549Z,6.50
2022-12-15T11:33:22.325Z,6.07
2022-12-15T11:36:04.276Z,6.82
2022-12-15T11:38:47.527Z,7.35
2022-12-15T11:41:35.882Z,6.75
2022-12-15T11:44:27.349Z,6.45
2022-12-15T11:50:05.434Z,6.13
2022-12-15T11:52:54.767Z,6.03
2022-12-15T11:55:35.885Z,6.70
2022-12-15T11:58:50.419Z,6.95
2022-12-15T12:02:02.418Z,8.63
2022-12-15T12:05:13.339Z,7.90
2022-12-15T12:11:21.022Z,7.60
2022-12-15T12:14:39.576Z,5.45
2022-12-15T12:17:34.868Z,4.65
2022-12-15T12:20:47.521Z,4.25
2022-12-15T12:23:29.632Z,4.70
2022-12-15T12:26:22.787Z,3.63
2022-12-15T12:29:06.678Z,3.92
2022-12-15T12:31:57.718Z,4.28
2022-12-15T12:34:51.385Z,4.43
2022-12-15T12:37:25.706Z,4.90
2022-12-15T12:40:02.317Z,4.07
2022-12-15T12:42:39.024Z,4.57
2022-12-15T12:45:14.288Z,5.60
2022-12-15T12:47:50.687Z,4.03
2022-12-15T12:50:33.274Z,4.57
2022-12-15T12:53:05.424Z,4.13
2022-12-15T12:55:46.641Z,4.53
2022-12-15T12:58:40.306Z,4.25
2022-12-15T13:01:36.451Z,4.28
2022-12-15T13:04:13.210Z,4.07
2022-12-15T13:07:46.956Z,4.15
2022-12-15T13:10:29.306Z,4.20
2022-12-15T13:13:37.222Z,4.15
2022-12-15T13:16:09.026Z,4.15
2022-12-15T13:21:59.003Z,3.47
2022-12-15T13:28:01.563Z,4.05
2022-12-15T13:31:12.236Z,4.18
2022-12-15T13:34:32.513Z,3.88
2022-12-15T13:41:30.707Z,4.43
2022-12-15T13:48:12.684Z,5.05
2022-12-15T13:51:15.179Z,5.97
2022-12-15T14:17:30.602Z,5.28
2022-12-15T14:23:39.832Z,6.93
2022-12-15T14:26:13.290Z,6.80
2022-12-15T14:29:00.635Z,7.03
2022-12-15T14:31:40.123Z,6.85
2022-12-15T14:34:40.209Z,6.45
2022-12-15T14:37:20.212Z,7.43
2022-12-15T14:40:15.682Z,6.93
2022-12-15T14:43:21.943Z,6.43
2022-12-15T14:46:29.492Z,7.18
2022-12-15T14:49:36.293Z,6.00
2022-12-15T14:53:05.020Z,6.68
2022-12-15T14:56:07.549Z,5.35
2022-12-15T14:59:02.969Z,5.65
2022-12-15T15:02:32.864Z,5.10
2022-12-15T15:03:04.145Z,9.07
2022-12-15T15:03:07.047Z,8.52
2022-12-15T15:08:44.347Z,4.75
2022-12-15T15:11:51.668Z,5.07
2022-12-15T15:18:11.713Z,5.60
2022-12-15T15:21:23.484Z,5.68
2022-12-15T15:27:19.049Z,4.60
2022-12-15T15:30:19.456Z,5.22
2022-12-15T15:33:19.064Z,5.80
2022-12-15T15:39:46.982Z,6.53
2022-12-15T15:42:40.736Z,6.80
2022-12-15T15:45:22.932Z,6.20
2022-12-15T15:48:18.275Z,6.88
2022-12-15T15:54:22.464Z,6.47
2022-12-15T15:57:13.799Z,6.43
2022-12-15T16:03:56.919Z,6.32
2022-12-15T16:06:47.840Z,6.18
2022-12-15T16:09:40.593Z,5.97
2022-12-15T16:12:38.903Z,5.60
2022-12-15T16:15:36.607Z,5.90
2022-12-15T16:18:21.026Z,6.60
2022-12-15T16:21:10.058Z,6.88
2022-12-15T16:27:10.448Z,10.48
2022-12-15T16:29:52.798Z,12.10
2022-12-15T16:32:40.797Z,11.60
2022-12-15T16:35:13.461Z,11.93
2022-12-15T16:37:49.592Z,13.30
2022-12-15T16:40:37.189Z,12.18
2022-12-15T16:43:16.414Z,12.80
2022-12-15T16:45:56.133Z,12.73
2022-12-15T16:48:32.861Z,12.70
2022-12-15T16:51:38.337Z,13.15
2022-12-15T16:54:15.030Z,12.63
2022-12-15T16:56:49.051Z,11.63
2022-12-15T16:59:33.447Z,12.25
2022-12-15T17:02:28.674Z,12.25
2022-12-15T17:05:01.227Z,11.57
2022-12-15T17:07:41.727Z,13.55
2022-12-15T17:13:45.840Z,14.57
2022-12-15T17:16:43.133Z,14.23
2022-12-15T17:19:52.561Z,13.80
2022-12-15T17:22:56.289Z,13.73
2022-12-15T17:28:46.866Z,13.35
2022-12-15T17:31:27.783Z,13.27
2022-12-15T17:37:05.155Z,12.77
2022-12-15T17:39:45.729Z,13.63
2022-12-15T17:42:30.124Z,14.35
2022-12-15T18:03:04.516Z,16.35
2022-12-15T18:55:42.861Z,20.20
2022-12-15T18:58:26.182Z,21.63
2022-12-15T19:05:03.257Z,22.05
2022-12-15T19:11:29.520Z,23.60
2022-12-15T19:28:19.198Z,23.88
2022-12-15T19:30:51.145Z,24.75
2022-12-15T19:33:20.499Z,23.63
2022-12-15T19:35:50.655Z,24.30
2022-12-15T19:38:25.490Z,52.15
2022-12-15T19:41:39.358Z,36.35
2022-12-15T19:50:50.445Z,24.73
2022-12-15T20:31:36.048Z,25.67
2022-12-15T20:34:12.065Z,26.42
2022-12-15T20:36:59.290Z,28.38
2022-12-15T20:39:39.894Z,26.77
2022-12-15T20:42:12.917Z,21.17
2022-12-15T20:45:15.002Z,26.70
2022-12-15T20:51:08.800Z,18.60
2022-12-15T20:53:55.649Z,26.42
2022-12-15T20:56:31.352Z,27.55
2022-12-15T20:59:17.637Z,28.13
2022-12-15T21:01:59.268Z,30.63
2022-12-15T21:07:31.008Z,30.50
2022-12-15T21:10:00.617Z,30.25
2022-12-15T21:12:38.605Z,31.25
2022-12-15T21:15:17.908Z,29.88
2022-12-15T21:18:19.831Z,29.98
2022-12-15T21:20:52.922Z,28.95
2022-12-15T21:23:42.473Z,30.02
2022-12-15T21:26:35.773Z,29.15
2022-12-15T21:29:17.376Z,28.85
2022-12-15T21:32:23.820Z,28.52
2022-12-15T21:34:58.271Z,31.73
2022-12-15T21:37:52.122Z,29.55
2022-12-15T21:40:59.704Z,32.25
2022-12-15T21:44:16.113Z,29.60
2022-12-15T21:46:48.303Z,29.02
2022-12-15T21:52:49.739Z,20.07
2022-12-15T21:55:32.455Z,25.67
2022-12-15T21:58:26.860Z,25.55
2022-12-15T22:12:09.938Z,27.67
2022-12-15T22:25:05.612Z,28.10
2022-12-15T22:31:24.368Z,29.60
2022-12-15T22:34:22.893Z,28.88
2022-12-15T22:37:46.005Z,28.55
2022-12-15T22:40:59.459Z,29.15
2022-12-15T22:44:29.355Z,30.00
2022-12-15T23:22:56.364Z,18.00
2022-12-15T23:40:53.615Z,16.90
2022-12-15T23:44:15.838Z,14.82
2022-12-15T23:49:11.254Z,16.55
